sensor_id;sensor_type;location;lat;lon;timestamp;P1;durP1;ratioP1;P2;durP2;ratioP2
75885;SDS011;64561;44.018;10.144;2023-12-20T00:01:08;20.52;;;14.32;;
75885;SDS011;64561;44.018;10.144;2023-12-20T00:03:36;21.75;;;14.82;;
75885;SDS011;64561;44.018;10.144;2023-12-20T00:06:08;20.88;;;13.73;;
75885;SDS011;64561;44.018;10.144;2023-12-20T00:08:37;21.45;;;14.13;;
75885;SDS011;64561;44.018;10.144;2023-12-20T00:11:04;24.77;;;15.88;;
75885;SDS011;64561;44.018;10.144;2023-12-20T00:13:31;24.70;;;15.63;;
75885;SDS011;64561;44.018;10.144;2023-12-20T00:15:58;23.38;;;16.05;;
75885;SDS011;64561;44.018;10.144;2023-12-20T00:18:26;23.50;;;14.77;;
75885;SDS011;64561;44.018;10.144;2023-12-20T00:20:53;21.10;;;14.43;;
75885;SDS011;64561;44.018;10.144;2023-12-20T00:23:21;19.90;;;14.57;;
75885;SDS011;64561;44.018;10.144;2023-12-20T00:25:50;20.85;;;14.50;;
75885;SDS011;64561;44.018;10.144;2023-12-20T00:28:17;21.83;;;15.55;;
75885;SDS011;64561;44.018;10.144;2023-12-20T00:30:44;28.42;;;17.98;;
75885;SDS011;64561;44.018;10.144;2023-12-20T00:33:14;33.38;;;20.50;;
75885;SDS011;64561;44.018;10.144;2023-12-20T00:35:41;30.90;;;19.05;;
75885;SDS011;64561;44.018;10.144;2023-12-20T00:38:08;26.23;;;16.92;;
75885;SDS011;64561;44.018;10.144;2023-12-20T00:40:37;24.02;;;15.35;;
75885;SDS011;64561;44.018;10.144;2023-12-20T00:43:04;23.60;;;15.15;;
75885;SDS011;64561;44.018;10.144;2023-12-20T00:45:31;22.67;;;14.70;;
75885;SDS011;64561;44.018;10.144;2023-12-20T00:47:58;20.45;;;12.75;;
75885;SDS011;64561;44.018;10.144;2023-12-20T00:50:26;18.27;;;12.38;;
75885;SDS011;64561;44.018;10.144;2023-12-20T00:52:56;19.33;;;10.90;;
75885;SDS011;64561;44.018;10.144;2023-12-20T00:55:23;16.80;;;9.57;;
75885;SDS011;64561;44.018;10.144;2023-12-20T00:57:51;16.48;;;10.13;;
75885;SDS011;64561;44.018;10.144;2023-12-20T01:00:20;14.00;;;9.88;;
75885;SDS011;64561;44.018;10.144;2023-12-20T01:02:48;11.73;;;8.57;;
75885;SDS011;64561;44.018;10.144;2023-12-20T01:05:17;13.10;;;8.82;;
75885;SDS011;64561;44.018;10.144;2023-12-20T01:07:46;14.13;;;8.85;;
75885;SDS011;64561;44.018;10.144;2023-12-20T01:10:13;12.68;;;8.27;;
75885;SDS011;64561;44.018;10.144;2023-12-20T01:12:41;14.45;;;8.98;;
75885;SDS011;64561;44.018;10.144;2023-12-20T01:15:09;16.08;;;9.52;;
75885;SDS011;64561;44.018;10.144;2023-12-20T01:17:37;15.88;;;9.73;;
75885;SDS011;64561;44.018;10.144;2023-12-20T01:20:04;18.30;;;11.63;;
75885;SDS011;64561;44.018;10.144;2023-12-20T01:22:33;21.63;;;12.18;;
75885;SDS011;64561;44.018;10.144;2023-12-20T01:25:02;19.75;;;11.55;;
75885;SDS011;64561;44.018;10.144;2023-12-20T01:27:30;17.95;;;11.60;;
75885;SDS011;64561;44.018;10.144;2023-12-20T01:29:58;18.15;;;11.45;;
75885;SDS011;64561;44.018;10.144;2023-12-20T01:32:25;15.15;;;11.30;;
75885;SDS011;64561;44.018;10.144;2023-12-20T01:34:52;15.02;;;10.68;;
75885;SDS011;64561;44.018;10.144;2023-12-20T01:37:19;18.90;;;11.93;;
75885;SDS011;64561;44.018;10.144;2023-12-20T01:39:47;15.43;;;10.52;;
75885;SDS011;64561;44.018;10.144;2023-12-20T01:42:15;17.48;;;11.32;;
75885;SDS011;64561;44.018;10.144;2023-12-20T01:44:42;16.08;;;10.90;;
75885;SDS011;64561;44.018;10.144;2023-12-20T01:47:09;16.48;;;11.07;;
75885;SDS011;64561;44.018;10.144;2023-12-20T01:49:37;17.65;;;10.80;;
75885;SDS011;64561;44.018;10.144;2023-12-20T01:52:05;16.55;;;11.60;;
75885;SDS011;64561;44.018;10.144;2023-12-20T01:54:36;19.23;;;11.55;;
75885;SDS011;64561;44.018;10.144;2023-12-20T01:57:05;17.95;;;11.32;;
75885;SDS011;64561;44.018;10.144;2023-12-20T01:59:34;18.05;;;12.02;;
75885;SDS011;64561;44.018;10.144;2023-12-20T02:02:02;20.30;;;10.95;;
75885;SDS011;64561;44.018;10.144;2023-12-20T02:04:31;17.80;;;11.55;;
75885;SDS011;64561;44.018;10.144;2023-12-20T02:06:58;17.55;;;12.50;;
75885;SDS011;64561;44.018;10.144;2023-12-20T02:09:26;18.33;;;11.65;;
75885;SDS011;64561;44.018;10.144;2023-12-20T02:11:54;15.55;;;11.40;;
75885;SDS011;64561;44.018;10.144;2023-12-20T02:14:21;20.20;;;11.88;;
75885;SDS011;64561;44.018;10.144;2023-12-20T02:16:49;16.75;;;10.65;;
75885;SDS011;64561;44.018;10.144;2023-12-20T02:19:16;14.80;;;9.95;;
75885;SDS011;64561;44.018;10.144;2023-12-20T02:21:44;17.75;;;12.32;;
75885;SDS011;64561;44.018;10.144;2023-12-20T02:24:12;16.70;;;10.40;;
75885;SDS011;64561;44.018;10.144;2023-12-20T02:26:39;15.38;;;10.48;;
75885;SDS011;64561;44.018;10.144;2023-12-20T02:29:11;17.95;;;11.35;;
75885;SDS011;64561;44.018;10.144;2023-12-20T02:31:39;16.90;;;10.55;;
75885;SDS011;64561;44.018;10.144;2023-12-20T02:34:06;16.42;;;10.52;;
75885;SDS011;64561;44.018;10.144;2023-12-20T02:36:33;17.45;;;10.80;;
75885;SDS011;64561;44.018;10.144;2023-12-20T02:39:01;17.88;;;11.18;;
75885;SDS011;64561;44.018;10.144;2023-12-20T02:41:28;18.65;;;11.20;;
75885;SDS011;64561;44.018;10.144;2023-12-20T02:43:55;17.88;;;10.50;;
75885;SDS011;64561;44.018;10.144;2023-12-20T02:46:23;18.17;;;12.32;;
75885;SDS011;64561;44.018;10.144;2023-12-20T02:48:50;14.88;;;10.43;;
75885;SDS011;64561;44.018;10.144;2023-12-20T02:51:17;15.60;;;10.32;;
75885;SDS011;64561;44.018;10.144;2023-12-20T02:53:44;15.18;;;10.48;;
75885;SDS011;64561;44.018;10.144;2023-12-20T02:56:11;14.20;;;10.00;;
75885;SDS011;64561;44.018;10.144;2023-12-20T02:58:39;16.10;;;10.60;;
75885;SDS011;64561;44.018;10.144;2023-12-20T03:01:06;20.75;;;11.23;;
75885;SDS011;64561;44.018;10.144;2023-12-20T03:03:33;19.35;;;11.15;;
75885;SDS011;64561;44.018;10.144;2023-12-20T03:06:00;16.70;;;10.10;;
75885;SDS011;64561;44.018;10.144;2023-12-20T03:08:28;15.95;;;10.90;;
75885;SDS011;64561;44.018;10.144;2023-12-20T03:10:59;16.15;;;11.10;;
75885;SDS011;64561;44.018;10.144;2023-12-20T03:13:26;17.55;;;11.15;;
75885;SDS011;64561;44.018;10.144;2023-12-20T03:15:57;18.83;;;11.20;;
75885;SDS011;64561;44.018;10.144;2023-12-20T03:18:24;15.05;;;11.68;;
75885;SDS011;64561;44.018;10.144;2023-12-20T03:20:52;16.45;;;10.38;;
75885;SDS011;64561;44.018;10.144;2023-12-20T03:23:19;16.88;;;11.27;;
75885;SDS011;64561;44.018;10.144;2023-12-20T03:25:47;15.57;;;11.57;;
75885;SDS011;64561;44.018;10.144;2023-12-20T03:28:14;16.08;;;10.85;;
75885;SDS011;64561;44.018;10.144;2023-12-20T03:30:42;16.48;;;11.85;;
75885;SDS011;64561;44.018;10.144;2023-12-20T03:33:10;18.13;;;11.95;;
75885;SDS011;64561;44.018;10.144;2023-12-20T03:35:37;17.85;;;10.90;;
75885;SDS011;64561;44.018;10.144;2023-12-20T03:38:04;15.30;;;10.75;;
75885;SDS011;64561;44.018;10.144;2023-12-20T03:40:32;16.45;;;11.38;;
75885;SDS011;64561;44.018;10.144;2023-12-20T03:42:59;14.70;;;10.20;;
75885;SDS011;64561;44.018;10.144;2023-12-20T03:45:26;15.55;;;10.05;;
75885;SDS011;64561;44.018;10.144;2023-12-20T03:47:54;13.77;;;9.88;;
75885;SDS011;64561;44.018;10.144;2023-12-20T03:50:23;13.57;;;8.98;;
75885;SDS011;64561;44.018;10.144;2023-12-20T03:52:50;12.48;;;9.15;;
75885;SDS011;64561;44.018;10.144;2023-12-20T03:55:18;15.35;;;10.15;;
75885;SDS011;64561;44.018;10.144;2023-12-20T03:57:45;15.07;;;9.82;;
75885;SDS011;64561;44.018;10.144;2023-12-20T04:00:13;14.57;;;9.60;;
75885;SDS011;64561;44.018;10.144;2023-12-20T04:02:41;13.23;;;9.35;;
75885;SDS011;64561;44.018;10.144;2023-12-20T04:05:09;14.95;;;9.70;;
75885;SDS011;64561;44.018;10.144;2023-12-20T04:07:37;21.00;;;9.93;;
75885;SDS011;64561;44.018;10.144;2023-12-20T04:10:05;18.45;;;9.93;;
75885;SDS011;64561;44.018;10.144;2023-12-20T04:12:33;16.17;;;9.75;;
75885;SDS011;64561;44.018;10.144;2023-12-20T04:15:00;15.38;;;10.13;;
75885;SDS011;64561;44.018;10.144;2023-12-20T04:17:29;18.05;;;10.32;;
75885;SDS011;64561;44.018;10.144;2023-12-20T04:19:56;14.65;;;8.85;;
75885;SDS011;64561;44.018;10.144;2023-12-20T04:22:24;15.13;;;9.32;;
75885;SDS011;64561;44.018;10.144;2023-12-20T04:24:51;14.07;;;9.20;;
75885;SDS011;64561;44.018;10.144;2023-12-20T04:27:19;16.88;;;11.20;;
75885;SDS011;64561;44.018;10.144;2023-12-20T04:29:46;17.00;;;11.07;;
75885;SDS011;64561;44.018;10.144;2023-12-20T04:32:13;17.85;;;11.10;;
75885;SDS011;64561;44.018;10.144;2023-12-20T04:34:40;16.80;;;10.60;;
75885;SDS011;64561;44.018;10.144;2023-12-20T04:37:07;14.18;;;10.02;;
75885;SDS011;64561;44.018;10.144;2023-12-20T04:39:34;14.88;;;10.23;;
75885;SDS011;64561;44.018;10.144;2023-12-20T04:42:02;18.38;;;10.98;;
75885;SDS011;64561;44.018;10.144;2023-12-20T04:44:29;15.32;;;9.80;;
75885;SDS011;64561;44.018;10.144;2023-12-20T04:46:58;16.58;;;9.48;;
75885;SDS011;64561;44.018;10.144;2023-12-20T04:49:25;12.55;;;9.13;;
75885;SDS011;64561;44.018;10.144;2023-12-20T04:51:53;15.82;;;10.38;;
75885;SDS011;64561;44.018;10.144;2023-12-20T04:54:22;14.73;;;9.43;;
75885;SDS011;64561;44.018;10.144;2023-12-20T04:56:49;13.60;;;9.82;;
75885;SDS011;64561;44.018;10.144;2023-12-20T04:59:17;14.90;;;10.40;;
75885;SDS011;64561;44.018;10.144;2023-12-20T05:01:44;14.32;;;10.60;;
75885;SDS011;64561;44.018;10.144;2023-12-20T05:04:12;16.08;;;11.07;;
75885;SDS011;64561;44.018;10.144;2023-12-20T05:06:39;17.02;;;10.82;;
75885;SDS011;64561;44.018;10.144;2023-12-20T05:09:06;14.55;;;10.52;;
75885;SDS011;64561;44.018;10.144;2023-12-20T05:11:33;18.08;;;10.88;;
75885;SDS011;64561;44.018;10.144;2023-12-20T05:14:01;18.10;;;11.20;;
75885;SDS011;64561;44.018;10.144;2023-12-20T05:16:28;23.20;;;11.70;;
75885;SDS011;64561;44.018;10.144;2023-12-20T05:18:55;16.27;;;10.32;;
75885;SDS011;64561;44.018;10.144;2023-12-20T05:21:23;18.98;;;10.75;;
75885;SDS011;64561;44.018;10.144;2023-12-20T05:23:50;16.38;;;10.90;;
75885;SDS011;64561;44.018;10.144;2023-12-20T05:26:17;15.63;;;10.30;;
75885;SDS011;64561;44.018;10.144;2023-12-20T05:28:44;15.48;;;9.57;;
75885;SDS011;64561;44.018;10.144;2023-12-20T05:31:13;18.92;;;11.45;;
75885;SDS011;64561;44.018;10.144;2023-12-20T05:33:41;16.95;;;12.07;;
75885;SDS011;64561;44.018;10.144;2023-12-20T05:36:09;17.40;;;11.02;;
75885;SDS011;64561;44.018;10.144;2023-12-20T05:38:38;18.15;;;11.32;;
75885;SDS011;64561;44.018;10.144;2023-12-20T05:41:05;18.65;;;11.65;;
75885;SDS011;64561;44.018;10.144;2023-12-20T05:43:32;17.65;;;11.75;;
75885;SDS011;64561;44.018;10.144;2023-12-20T05:46:00;22.10;;;14.27;;
75885;SDS011;64561;44.018;10.144;2023-12-20T05:48:27;23.77;;;14.95;;
75885;SDS011;64561;44.018;10.144;2023-12-20T05:50:54;25.95;;;17.20;;
75885;SDS011;64561;44.018;10.144;2023-12-20T05:53:22;27.20;;;16.95;;
75885;SDS011;64561;44.018;10.144;2023-12-20T05:55:49;26.67;;;17.70;;
75885;SDS011;64561;44.018;10.144;2023-12-20T05:58:16;22.98;;;15.48;;
75885;SDS011;64561;44.018;10.144;2023-12-20T06:00:43;23.25;;;15.23;;
75885;SDS011;64561;44.018;10.144;2023-12-20T06:03:10;26.25;;;15.23;;
75885;SDS011;64561;44.018;10.144;2023-12-20T06:05:37;22.85;;;15.10;;
75885;SDS011;64561;44.018;10.144;2023-12-20T06:08:05;24.67;;;15.73;;
75885;SDS011;64561;44.018;10.144;2023-12-20T06:10:32;25.42;;;15.10;;
75885;SDS011;64561;44.018;10.144;2023-12-20T06:12:59;22.95;;;14.73;;
75885;SDS011;64561;44.018;10.144;2023-12-20T06:15:27;23.42;;;13.77;;
75885;SDS011;64561;44.018;10.144;2023-12-20T06:17:55;24.67;;;13.57;;
75885;SDS011;64561;44.018;10.144;2023-12-20T06:20:22;19.70;;;13.52;;
75885;SDS011;64561;44.018;10.144;2023-12-20T06:22:49;21.13;;;13.50;;
75885;SDS011;64561;44.018;10.144;2023-12-20T06:25:16;25.92;;;14.60;;
75885;SDS011;64561;44.018;10.144;2023-12-20T06:27:43;21.20;;;13.77;;
75885;SDS011;64561;44.018;10.144;2023-12-20T06:30:11;19.50;;;13.70;;
75885;SDS011;64561;44.018;10.144;2023-12-20T06:32:39;23.42;;;14.93;;
75885;SDS011;64561;44.018;10.144;2023-12-20T06:35:09;25.05;;;15.18;;
75885;SDS011;64561;44.018;10.144;2023-12-20T06:37:36;20.88;;;14.73;;
75885;SDS011;64561;44.018;10.144;2023-12-20T06:40:03;24.50;;;14.75;;
75885;SDS011;64561;44.018;10.144;2023-12-20T06:42:31;28.50;;;16.55;;
75885;SDS011;64561;44.018;10.144;2023-12-20T06:45:09;21.17;;;14.27;;
75885;SDS011;64561;44.018;10.144;2023-12-20T06:47:36;22.63;;;14.45;;
75885;SDS011;64561;44.018;10.144;2023-12-20T06:50:04;23.30;;;15.10;;
75885;SDS011;64561;44.018;10.144;2023-12-20T06:52:32;22.58;;;14.70;;
75885;SDS011;64561;44.018;10.144;2023-12-20T06:54:59;21.50;;;14.40;;
75885;SDS011;64561;44.018;10.144;2023-12-20T06:57:29;21.80;;;14.52;;
75885;SDS011;64561;44.018;10.144;2023-12-20T06:59:56;23.98;;;14.20;;
75885;SDS011;64561;44.018;10.144;2023-12-20T07:02:24;21.00;;;13.27;;
75885;SDS011;64561;44.018;10.144;2023-12-20T07:04:51;20.90;;;12.68;;
75885;SDS011;64561;44.018;10.144;2023-12-20T07:07:19;21.30;;;15.02;;
75885;SDS011;64561;44.018;10.144;2023-12-20T07:09:46;18.48;;;13.27;;
75885;SDS011;64561;44.018;10.144;2023-12-20T07:12:13;18.65;;;12.55;;
75885;SDS011;64561;44.018;10.144;2023-12-20T07:14:40;17.55;;;11.13;;
75885;SDS011;64561;44.018;10.144;2023-12-20T07:17:07;38.00;;;22.10;;
75885;SDS011;64561;44.018;10.144;2023-12-20T07:19:38;28.63;;;17.70;;
75885;SDS011;64561;44.018;10.144;2023-12-20T07:22:05;20.58;;;13.98;;
75885;SDS011;64561;44.018;10.144;2023-12-20T07:24:33;20.42;;;13.02;;
75885;SDS011;64561;44.018;10.144;2023-12-20T07:27:01;24.20;;;14.40;;
75885;SDS011;64561;44.018;10.144;2023-12-20T07:29:29;17.80;;;12.68;;
75885;SDS011;64561;44.018;10.144;2023-12-20T07:31:56;16.60;;;11.48;;
75885;SDS011;64561;44.018;10.144;2023-12-20T07:34:23;17.02;;;11.40;;
75885;SDS011;64561;44.018;10.144;2023-12-20T07:36:50;19.98;;;13.30;;
75885;SDS011;64561;44.018;10.144;2023-12-20T07:39:18;17.45;;;11.20;;
75885;SDS011;64561;44.018;10.144;2023-12-20T07:41:45;20.13;;;12.52;;
75885;SDS011;64561;44.018;10.144;2023-12-20T07:44:12;22.27;;;13.30;;
75885;SDS011;64561;44.018;10.144;2023-12-20T07:46:40;20.15;;;12.55;;
75885;SDS011;64561;44.018;10.144;2023-12-20T07:49:07;16.27;;;11.02;;
75885;SDS011;64561;44.018;10.144;2023-12-20T07:51:35;19.73;;;10.77;;
75885;SDS011;64561;44.018;10.144;2023-12-20T07:54:02;18.48;;;9.82;;
75885;SDS011;64561;44.018;10.144;2023-12-20T07:56:30;18.90;;;10.20;;
75885;SDS011;64561;44.018;10.144;2023-12-20T07:58:57;17.67;;;9.93;;
75885;SDS011;64561;44.018;10.144;2023-12-20T08:01:26;22.00;;;12.50;;
75885;SDS011;64561;44.018;10.144;2023-12-20T08:03:54;18.00;;;11.50;;
75885;SDS011;64561;44.018;10.144;2023-12-20T08:06:22;27.05;;;11.85;;
75885;SDS011;64561;44.018;10.144;2023-12-20T08:08:52;18.63;;;13.18;;
75885;SDS011;64561;44.018;10.144;2023-12-20T08:11:35;25.17;;;14.05;;
75885;SDS011;64561;44.018;10.144;2023-12-20T08:14:02;26.90;;;16.48;;
75885;SDS011;64561;44.018;10.144;2023-12-20T08:19:07;33.40;;;18.05;;
75885;SDS011;64561;44.018;10.144;2023-12-20T08:21:49;25.60;;;14.80;;
75885;SDS011;64561;44.018;10.144;2023-12-20T08:24:28;20.25;;;11.93;;
75885;SDS011;64561;44.018;10.144;2023-12-20T08:27:08;17.35;;;10.75;;
75885;SDS011;64561;44.018;10.144;2023-12-20T08:29:37;20.95;;;11.30;;
75885;SDS011;64561;44.018;10.144;2023-12-20T08:32:04;19.75;;;12.15;;
75885;SDS011;64561;44.018;10.144;2023-12-20T08:34:32;21.50;;;11.88;;
75885;SDS011;64561;44.018;10.144;2023-12-20T08:36:59;17.30;;;11.63;;
75885;SDS011;64561;44.018;10.144;2023-12-20T08:39:26;16.50;;;11.05;;
75885;SDS011;64561;44.018;10.144;2023-12-20T08:41:54;19.13;;;11.15;;
75885;SDS011;64561;44.018;10.144;2023-12-20T08:44:21;17.33;;;10.48;;
75885;SDS011;64561;44.018;10.144;2023-12-20T08:46:49;20.08;;;10.63;;
75885;SDS011;64561;44.018;10.144;2023-12-20T08:49:16;20.23;;;11.93;;
75885;SDS011;64561;44.018;10.144;2023-12-20T08:51:44;24.88;;;11.98;;
75885;SDS011;64561;44.018;10.144;2023-12-20T08:54:11;19.73;;;13.35;;
75885;SDS011;64561;44.018;10.144;2023-12-20T08:56:40;20.80;;;13.32;;
75885;SDS011;64561;44.018;10.144;2023-12-20T08:59:07;23.05;;;12.90;;
75885;SDS011;64561;44.018;10.144;2023-12-20T09:01:34;23.10;;;13.48;;
75885;SDS011;64561;44.018;10.144;2023-12-20T09:04:02;21.70;;;13.10;;
75885;SDS011;64561;44.018;10.144;2023-12-20T09:06:29;22.90;;;12.23;;
75885;SDS011;64561;44.018;10.144;2023-12-20T09:08:56;20.60;;;13.13;;
75885;SDS011;64561;44.018;10.144;2023-12-20T09:11:23;21.45;;;11.48;;
75885;SDS011;64561;44.018;10.144;2023-12-20T09:13:52;20.63;;;12.38;;
75885;SDS011;64561;44.018;10.144;2023-12-20T09:16:19;20.75;;;12.45;;
75885;SDS011;64561;44.018;10.144;2023-12-20T09:18:46;28.23;;;15.85;;
75885;SDS011;64561;44.018;10.144;2023-12-20T09:21:14;27.77;;;16.52;;
75885;SDS011;64561;44.018;10.144;2023-12-20T09:23:41;30.60;;;19.67;;
75885;SDS011;64561;44.018;10.144;2023-12-20T09:26:08;29.08;;;19.08;;
75885;SDS011;64561;44.018;10.144;2023-12-20T09:28:38;38.10;;;22.02;;
75885;SDS011;64561;44.018;10.144;2023-12-20T09:31:07;35.72;;;22.70;;
75885;SDS011;64561;44.018;10.144;2023-12-20T09:33:36;40.00;;;25.90;;
75885;SDS011;64561;44.018;10.144;2023-12-20T09:36:04;46.45;;;27.92;;
75885;SDS011;64561;44.018;10.144;2023-12-20T09:38:32;45.00;;;29.52;;
75885;SDS011;64561;44.018;10.144;2023-12-20T09:40:59;54.88;;;32.20;;
75885;SDS011;64561;44.018;10.144;2023-12-20T09:43:29;47.78;;;29.60;;
75885;SDS011;64561;44.018;10.144;2023-12-20T09:45:59;44.05;;;27.98;;
75885;SDS011;64561;44.018;10.144;2023-12-20T09:48:29;42.63;;;25.30;;
75885;SDS011;64561;44.018;10.144;2023-12-20T09:50:58;42.40;;;23.80;;
75885;SDS011;64561;44.018;10.144;2023-12-20T09:53:25;35.15;;;22.88;;
75885;SDS011;64561;44.018;10.144;2023-12-20T09:58:30;33.45;;;20.88;;
75885;SDS011;64561;44.018;10.144;2023-12-20T10:01:00;31.35;;;20.90;;
75885;SDS011;64561;44.018;10.144;2023-12-20T10:03:33;35.75;;;20.70;;
75885;SDS011;64561;44.018;10.144;2023-12-20T10:06:01;31.02;;;18.40;;
75885;SDS011;64561;44.018;10.144;2023-12-20T10:08:28;31.38;;;19.92;;
75885;SDS011;64561;44.018;10.144;2023-12-20T10:10:56;33.67;;;21.00;;
75885;SDS011;64561;44.018;10.144;2023-12-20T10:13:29;41.70;;;21.95;;
75885;SDS011;64561;44.018;10.144;2023-12-20T10:15:56;42.50;;;24.95;;
75885;SDS011;64561;44.018;10.144;2023-12-20T10:18:24;43.40;;;25.75;;
75885;SDS011;64561;44.018;10.144;2023-12-20T10:21:05;45.67;;;25.42;;
75885;SDS011;64561;44.018;10.144;2023-12-20T10:23:37;45.20;;;26.55;;
75885;SDS011;64561;44.018;10.144;2023-12-20T10:26:06;43.70;;;27.35;;
75885;SDS011;64561;44.018;10.144;2023-12-20T10:28:33;44.50;;;25.80;;
75885;SDS011;64561;44.018;10.144;2023-12-20T10:31:02;40.35;;;22.67;;
75885;SDS011;64561;44.018;10.144;2023-12-20T10:33:30;40.97;;;23.27;;
75885;SDS011;64561;44.018;10.144;2023-12-20T10:36:00;42.33;;;24.00;;
75885;SDS011;64561;44.018;10.144;2023-12-20T10:38:27;37.22;;;23.63;;
75885;SDS011;64561;44.018;10.144;2023-12-20T10:40:57;37.22;;;23.98;;
75885;SDS011;64561;44.018;10.144;2023-12-20T10:43:26;38.83;;;22.98;;
75885;SDS011;64561;44.018;10.144;2023-12-20T10:45:56;37.45;;;22.00;;
75885;SDS011;64561;44.018;10.144;2023-12-20T10:48:24;36.40;;;21.45;;
75885;SDS011;64561;44.018;10.144;2023-12-20T10:50:56;34.60;;;23.00;;
75885;SDS011;64561;44.018;10.144;2023-12-20T10:53:25;40.63;;;25.60;;
75885;SDS011;64561;44.018;10.144;2023-12-20T10:55:52;39.63;;;26.55;;
75885;SDS011;64561;44.018;10.144;2023-12-20T10:58:24;37.55;;;26.17;;
75885;SDS011;64561;44.018;10.144;2023-12-20T11:00:55;40.25;;;24.75;;
75885;SDS011;64561;44.018;10.144;2023-12-20T11:03:27;33.65;;;21.77;;
75885;SDS011;64561;44.018;10.144;2023-12-20T11:06:01;30.77;;;21.30;;
75885;SDS011;64561;44.018;10.144;2023-12-20T11:14:35;30.25;;;19.35;;
75885;SDS011;64561;44.018;10.144;2023-12-20T11:17:16;29.17;;;19.70;;
75885;SDS011;64561;44.018;10.144;2023-12-20T11:22:20;31.80;;;20.88;;
75885;SDS011;64561;44.018;10.144;2023-12-20T11:24:49;30.42;;;20.15;;
75885;SDS011;64561;44.018;10.144;2023-12-20T11:27:17;25.23;;;17.88;;
75885;SDS011;64561;44.018;10.144;2023-12-20T11:29:52;25.25;;;16.58;;
75885;SDS011;64561;44.018;10.144;2023-12-20T11:34:51;30.50;;;18.80;;
75885;SDS011;64561;44.018;10.144;2023-12-20T11:37:21;27.45;;;17.83;;
75885;SDS011;64561;44.018;10.144;2023-12-20T11:39:55;24.50;;;17.60;;
75885;SDS011;64561;44.018;10.144;2023-12-20T11:42:26;25.70;;;16.25;;
75885;SDS011;64561;44.018;10.144;2023-12-20T11:44:54;27.70;;;18.75;;
75885;SDS011;64561;44.018;10.144;2023-12-20T11:47:23;24.73;;;17.23;;
75885;SDS011;64561;44.018;10.144;2023-12-20T11:49:50;27.17;;;17.45;;
75885;SDS011;64561;44.018;10.144;2023-12-20T11:52:19;25.05;;;15.18;;
75885;SDS011;64561;44.018;10.144;2023-12-20T11:54:46;25.23;;;15.00;;
75885;SDS011;64561;44.018;10.144;2023-12-20T11:57:14;20.30;;;15.40;;
75885;SDS011;64561;44.018;10.144;2023-12-20T11:59:42;22.45;;;15.23;;
75885;SDS011;64561;44.018;10.144;2023-12-20T12:02:11;30.70;;;20.55;;
75885;SDS011;64561;44.018;10.144;2023-12-20T12:04:41;27.35;;;17.48;;
75885;SDS011;64561;44.018;10.144;2023-12-20T12:07:08;27.35;;;16.40;;
75885;SDS011;64561;44.018;10.144;2023-12-20T12:09:36;25.95;;;17.83;;
75885;SDS011;64561;44.018;10.144;2023-12-20T12:12:03;26.70;;;17.95;;
75885;SDS011;64561;44.018;10.144;2023-12-20T12:14:30;27.17;;;18.50;;
75885;SDS011;64561;44.018;10.144;2023-12-20T12:16:58;30.13;;;19.13;;
75885;SDS011;64561;44.018;10.144;2023-12-20T12:19:25;27.58;;;18.83;;
75885;SDS011;64561;44.018;10.144;2023-12-20T12:22:13;33.30;;;21.17;;
75885;SDS011;64561;44.018;10.144;2023-12-20T12:24:43;32.40;;;21.35;;
75885;SDS011;64561;44.018;10.144;2023-12-20T12:27:11;31.90;;;21.33;;
75885;SDS011;64561;44.018;10.144;2023-12-20T12:29:43;29.25;;;21.48;;
75885;SDS011;64561;44.018;10.144;2023-12-20T12:32:31;31.45;;;20.65;;
75885;SDS011;64561;44.018;10.144;2023-12-20T12:35:00;28.35;;;19.55;;
75885;SDS011;64561;44.018;10.144;2023-12-20T12:37:29;30.55;;;20.60;;
75885;SDS011;64561;44.018;10.144;2023-12-20T12:39:57;31.85;;;19.35;;
75885;SDS011;64561;44.018;10.144;2023-12-20T12:42:24;30.52;;;21.92;;
75885;SDS011;64561;44.018;10.144;2023-12-20T12:44:55;33.90;;;22.17;;
75885;SDS011;64561;44.018;10.144;2023-12-20T12:47:25;34.40;;;24.55;;
75885;SDS011;64561;44.018;10.144;2023-12-20T12:49:53;37.03;;;25.92;;
75885;SDS011;64561;44.018;10.144;2023-12-20T12:52:21;40.53;;;25.17;;
75885;SDS011;64561;44.018;10.144;2023-12-20T12:57:40;39.13;;;25.88;;
75885;SDS011;64561;44.018;10.144;2023-12-20T13:00:08;37.72;;;24.60;;
75885;SDS011;64561;44.018;10.144;2023-12-20T13:02:36;43.75;;;27.25;;
75885;SDS011;64561;44.018;10.144;2023-12-20T13:05:06;40.92;;;26.80;;
75885;SDS011;64561;44.018;10.144;2023-12-20T13:07:36;48.17;;;32.60;;
75885;SDS011;64561;44.018;10.144;2023-12-20T13:10:04;37.35;;;24.23;;
75885;SDS011;64561;44.018;10.144;2023-12-20T13:12:33;33.47;;;22.30;;
75885;SDS011;64561;44.018;10.144;2023-12-20T13:18:00;40.58;;;24.40;;
75885;SDS011;64561;44.018;10.144;2023-12-20T13:20:28;32.95;;;21.95;;
75885;SDS011;64561;44.018;10.144;2023-12-20T13:22:55;33.47;;;22.40;;
75885;SDS011;64561;44.018;10.144;2023-12-20T13:25:22;31.48;;;19.15;;
75885;SDS011;64561;44.018;10.144;2023-12-20T13:27:50;33.00;;;20.15;;
75885;SDS011;64561;44.018;10.144;2023-12-20T13:30:17;29.17;;;20.08;;
75885;SDS011;64561;44.018;10.144;2023-12-20T13:32:45;29.52;;;18.83;;
75885;SDS011;64561;44.018;10.144;2023-12-20T13:35:13;31.05;;;19.63;;
75885;SDS011;64561;44.018;10.144;2023-12-20T13:37:40;26.17;;;18.80;;
75885;SDS011;64561;44.018;10.144;2023-12-20T13:40:08;30.73;;;19.25;;
75885;SDS011;64561;44.018;10.144;2023-12-20T13:42:35;27.52;;;18.75;;
75885;SDS011;64561;44.018;10.144;2023-12-20T13:45:03;28.17;;;18.75;;
75885;SDS011;64561;44.018;10.144;2023-12-20T13:47:32;29.20;;;20.05;;
75885;SDS011;64561;44.018;10.144;2023-12-20T13:49:59;37.30;;;23.15;;
75885;SDS011;64561;44.018;10.144;2023-12-20T13:52:29;33.60;;;22.02;;
75885;SDS011;64561;44.018;10.144;2023-12-20T13:54:57;38.10;;;24.40;;
75885;SDS011;64561;44.018;10.144;2023-12-20T13:57:24;31.30;;;21.08;;
75885;SDS011;64561;44.018;10.144;2023-12-20T14:00:11;34.25;;;21.80;;
75885;SDS011;64561;44.018;10.144;2023-12-20T14:02:41;39.58;;;25.90;;
75885;SDS011;64561;44.018;10.144;2023-12-20T14:05:09;36.97;;;24.40;;
75885;SDS011;64561;44.018;10.144;2023-12-20T14:07:41;32.75;;;20.50;;
75885;SDS011;64561;44.018;10.144;2023-12-20T14:10:12;41.20;;;29.40;;
75885;SDS011;64561;44.018;10.144;2023-12-20T14:12:40;42.03;;;26.17;;
75885;SDS011;64561;44.018;10.144;2023-12-20T14:15:08;36.67;;;24.75;;
75885;SDS011;64561;44.018;10.144;2023-12-20T14:17:38;40.92;;;25.85;;
75885;SDS011;64561;44.018;10.144;2023-12-20T14:20:06;45.00;;;27.30;;
75885;SDS011;64561;44.018;10.144;2023-12-20T14:22:35;39.15;;;23.40;;
75885;SDS011;64561;44.018;10.144;2023-12-20T14:25:02;42.10;;;27.27;;
75885;SDS011;64561;44.018;10.144;2023-12-20T14:27:30;38.50;;;26.83;;
75885;SDS011;64561;44.018;10.144;2023-12-20T14:29:57;37.72;;;26.15;;
75885;SDS011;64561;44.018;10.144;2023-12-20T14:32:24;41.30;;;25.38;;
75885;SDS011;64561;44.018;10.144;2023-12-20T14:34:54;35.60;;;25.40;;
75885;SDS011;64561;44.018;10.144;2023-12-20T14:37:22;42.05;;;25.48;;
75885;SDS011;64561;44.018;10.144;2023-12-20T14:39:49;34.13;;;23.55;;